Nearby METAR Reports

 

KSNA - John Wayne Airport, California, USA
Distance from station: NE 2mi, 3km
Updated: Sun, 04-Dec-2022 3:53pm PST
Mostly cloudy
Mostly cloudy
 Wind from N
Wind: N 5 mph , 7 km/h
Temperature: 68°F , 20°C
Dew Point: 54°F , 12°C
Humidity: 60%
Barometer: 30.06 inHg , 1017.9 hPa
Clouds: Mostly cloudy
Visibility: 10 miles , 16 km
Cloud details: Partly cloudy 3100 ft
Mostly cloudy 5500 ft
Mostly cloudy 7500 ft
2022/12/04 23:53 KSNA 042353Z 35004KT 10SM SCT031 BKN055 BKN075 20/12 A3006 RMK AO2 SLP180 T02000117 10211 20161 58006 $
KSLI - Los Alamitos Aaf, California, USA
Distance from station: NW 11mi, 18km
Updated: Sun, 04-Dec-2022 3:55pm PST
Overcast
Overcast
 Wind from NW
Wind: NW 3 mph , 6 km/h
Temperature: 63°F , 17°C
Dew Point: 57°F , 14°C
Humidity: 83%
Barometer: 30.04 inHg , 1017.3 hPa
Clouds: Overcast
Visibility: 7 miles , 11 km
Cloud details: Few Clouds 700 ft
Partly cloudy 1500 ft
Mostly cloudy 2500 ft
Overcast 3500 ft
2022/12/04 23:55 KSLI 042355Z 31003KT 7SM FEW007 SCT015 BKN025 OVC035 17/14 A3004 RMK AO2A RAE01 SLP176 P0000 60000 T01700143 10200 20164 57007
 
KFUL - Fullerton Muni, California, USA
Distance from station: NNW 16mi, 26km
Updated: Sun, 04-Dec-2022 3:53pm PST
Mostly cloudy
Mostly cloudy
 Wind from W
Wind: W 7 mph , 11 km/h
Temperature: 64°F , 18°C
Dew Point: 55°F , 13°C
Humidity: 73%
Barometer: 30.06 inHg , 1017.9 hPa
Clouds: Mostly cloudy
Visibility: 10 miles , 16 km
Cloud details: Few Clouds 2300 ft
Mostly cloudy 3100 ft
2022/12/04 23:53 KFUL 042353Z 26006KT 10SM FEW023 BKN031 18/13 A3006 RMK AO2 SLP179 60000 T01780133 10194 20167 56006
KLGB - Long Beach Muni, California, USA
Distance from station: NW 19mi, 30km
Updated: Sun, 04-Dec-2022 3:53pm PST
Mist, Overcast
Mist, Overcast
 Wind from NNW
Wind: NNW 7 mph , 11 km/h
Temperature: 63°F , 17°C
Dew Point: 57°F , 14°C
Humidity: 83%
Barometer: 30.07 inHg , 1018.3 hPa
Summary: Mist
Clouds: Overcast
Visibility: 5 miles , 8 km
Cloud details: Few Clouds 700 ft
Overcast 2200 ft
2022/12/04 23:53 KLGB 042353Z 33006KT 5SM BR FEW007 OVC022 17/14 A3007 RMK AO2 RAE23 SLP183 P0000 60001 T01670144 10194 20167 58005
 
KAJO - Corona Muni, California, USA
Distance from station: NE 24mi, 39km
Updated: Sun, 04-Dec-2022 3:56pm PST
Overcast
Overcast
 Wind from W
Wind: W 6 mph , 9 km/h
Temperature: 64°F , 18°C
Dew Point: 54°F , 12°C
Humidity: 68%
Barometer: 30.08 inHg , 1018.6 hPa
Clouds: Overcast
Visibility: 10 miles , 16 km
Cloud details: Mostly cloudy 4000 ft
Overcast 4900 ft
2022/12/04 23:56 KAJO 042356Z AUTO 28005KT 10SM BKN040 OVC049 18/12 A3008 RMK AO2 RAB04E17 SLP181 P0000 6//// T01780117 10189 20150 56007
KTOA - Torrance Municip, California, USA
Distance from station: WNW 26mi, 42km
Updated: Sun, 04-Dec-2022 3:50pm PST
Mist, Overcast
Mist, Overcast
 Wind from calm
Wind: Calm
Temperature: 63°F , 17°C
Dew Point: 54°F , 12°C
Humidity: 73%
Barometer: 30.08 inHg , 1018.6 hPa
Summary: Mist
Clouds: Overcast
Visibility: 4 miles , 6 km
Cloud details: Mostly cloudy 1200 ft
Overcast 2000 ft
2022/12/04 23:50 KTOA 042350Z 00000KT 4SM BR BKN012 OVC020 17/12 A3008
 
KCNO - Chino, California, USA
Distance from station: NE 28mi, 45km
Updated: Sun, 04-Dec-2022 3:53pm PST
Overcast
Overcast
 Wind from WNW
Wind: WNW 5 mph , 7 km/h
Temperature: 64°F , 18°C
Dew Point: 52°F , 11°C
Humidity: 64%
Barometer: 30.08 inHg , 1018.6 hPa
Clouds: Overcast
Visibility: 10 miles , 16 km
Cloud details: Mostly cloudy 3600 ft
Overcast 4400 ft
2022/12/04 23:53 KCNO 042353Z 30004KT 10SM BKN036 OVC044 18/11 A3008 RMK AO2 SLP183 T01830111 10189 20144 56008
KEMT - El Monte, California, USA
Distance from station: NNW 30mi, 48km
Updated: Sun, 04-Dec-2022 3:45pm PST
Overcast
Overcast
 Wind from calm
Wind: Calm
Temperature: 63°F , 17°C
Dew Point: 54°F , 12°C
Humidity: 73%
Barometer: 30.07 inHg , 1018.3 hPa
Clouds: Overcast
Visibility: 10 miles , 16 km
Cloud details: Overcast 2800 ft
2022/12/04 23:45 KEMT 042345Z 00000KT 10SM OVC028 17/12 A3007
 
KHHR - Hawthorne, California, USA
Distance from station: NW 31mi, 50km
Updated: Sun, 04-Dec-2022 4:26pm PST
Mist, Overcast
Mist, Overcast
 Wind from calm
Wind: Calm
Temperature: 63°F , 17°C
Dew Point: 57°F , 14°C
Humidity: 83%
Barometer: 30.07 inHg , 1018.3 hPa
Summary: Mist
Clouds: Overcast
Visibility: 5 miles , 8 km
Cloud details: Few Clouds 600 ft
Overcast 1500 ft
2022/12/05 00:26 KHHR 050026Z 00000KT 5SM BR FEW006 OVC015 17/14 A3007 RMK AO2 T01670144
KPOC - La Verne/Bracket, California, USA
Distance from station: NNE 32mi, 52km
Updated: Sun, 04-Dec-2022 1:47pm PST
NOT Current
Overcast
Overcast
 Wind from WSW
Wind: WSW 6 mph , 9 km/h
Barometer: 30.09 inHg , 1019 hPa
Clouds: Overcast
Visibility: 10 miles , 16 km
Cloud details: Overcast 4000 ft
2022/12/04 21:47 KPOC 042147Z 24005KT 10SM OVC040 A3009
 
KONT - Ontario, California, USA
Distance from station: NNE 33mi, 53km
Updated: Sun, 04-Dec-2022 4:35pm PST
Overcast
Overcast
 Wind from varies
Wind: varies 6 mph , 9 km/h
Temperature: 61°F , 16°C
Dew Point: 52°F , 11°C
Humidity: 72%
Barometer: 30.06 inHg , 1017.9 hPa
Clouds: Overcast
Visibility: 10 miles , 16 km
Cloud details: Partly cloudy 2400 ft
Mostly cloudy 2900 ft
Overcast 4400 ft
2022/12/05 00:35 KONT 050035Z VRB05KT 10SM SCT024 BKN029 OVC044 16/11 A3006 RMK AO2 VCSH T01560111
KRAL - Riverside, California, USA
Distance from station: NE 33mi, 53km
Updated: Sun, 04-Dec-2022 3:53pm PST
Overcast
Overcast
 Wind from calm
Wind: Calm
Temperature: 63°F , 17°C
Dew Point: 52°F , 11°C
Humidity: 68%
Barometer: 30.07 inHg , 1018.3 hPa
Clouds: Overcast
Visibility: 10 miles , 16 km
Cloud details: Overcast 3600 ft
2022/12/04 23:53 KRAL 042353Z 00000KT 10SM OVC036 17/11 A3007 RMK AO2 SLP175 T01670106 10183 20156 56005
 
KCQT - USC/Los Angeles, California, USA
Distance from station: NW 34mi, 54km
Updated: Sun, 04-Dec-2022 3:47pm PST
Light rain, Mist, Overcast
Light rain, Mist, Overcast
 Wind from calm
Wind: Calm
Temperature: 61°F , 16°C
Dew Point: 57°F , 14°C
Humidity: 88%
Barometer: 30.08 inHg , 1018.6 hPa
Summary: Light rain, Mist
Clouds: Overcast
Visibility: 3 miles , 5 km
Cloud details: Overcast 1700 ft
2022/12/04 23:47 KCQT 042347Z AUTO 00000KT 3SM -RA BR OVC017 16/14 A3008 RMK AO2 RAB27 SLP184 P0000 60000 T01610144 10183 20161 58007
KLAX - LAX/Los Angeles, California, USA
Distance from station: NW 34mi, 55km
Updated: Sun, 04-Dec-2022 3:53pm PST
Mostly cloudy
Mostly cloudy
 Wind from calm
Wind: Calm
Temperature: 61°F , 16°C
Dew Point: 55°F , 13°C
Humidity: 83%
Barometer: 30.07 inHg , 1018.3 hPa
Clouds: Mostly cloudy
Visibility: 10 miles , 16 km
Cloud details: Partly cloudy 2100 ft
Mostly cloudy 2900 ft
2022/12/04 23:53 KLAX 042353Z 00000KT 10SM SCT021 BKN029 16/13 A3007 RMK AO2 SLP183 SHRA NE-SE 60000 T01610133 10178 20161 56007 $
 
KAVX - Avalon, California, USA
Distance from station: WSW 35mi, 56km
Updated: Sun, 04-Dec-2022 4:37pm PST
Mist, Overcast
Mist, Overcast
 Wind from SSW
Wind: SSW 3 mph , 6 km/h
Temperature: 55°F , 13°C
Dew Point: 54°F , 12°C
Humidity: 94%
Barometer: 30.08 inHg , 1018.6 hPa
Summary: Mist
Clouds: Overcast
Visibility: 4 miles , 6 km
Cloud details: Overcast 400 ft
2022/12/05 00:37 KAVX 050037Z AUTO 21003KT 4SM BR OVC004 13/12 A3008 RMK AO2 RAE01 CIG 003V008 P0000 T01330122